sensor_id;sensor_type;location;lat;lon;timestamp;temperature;humidity
4578;DHT22;2301;47.354;8.528;2023-07-13T00:01:39;24.80;83.10
4578;DHT22;2301;47.354;8.528;2023-07-13T00:04:08;24.80;82.40
4578;DHT22;2301;47.354;8.528;2023-07-13T00:06:35;24.70;81.50
4578;DHT22;2301;47.354;8.528;2023-07-13T00:09:02;24.50;81.40
4578;DHT22;2301;47.354;8.528;2023-07-13T00:11:29;24.20;82.30
4578;DHT22;2301;47.354;8.528;2023-07-13T00:13:56;23.90;83.10
4578;DHT22;2301;47.354;8.528;2023-07-13T00:16:23;23.70;82.90
4578;DHT22;2301;47.354;8.528;2023-07-13T00:18:51;23.50;83.20
4578;DHT22;2301;47.354;8.528;2023-07-13T00:21:18;23.30;83.70
4578;DHT22;2301;47.354;8.528;2023-07-13T00:23:45;23.10;84.00
4578;DHT22;2301;47.354;8.528;2023-07-13T00:26:12;23.00;84.50
4578;DHT22;2301;47.354;8.528;2023-07-13T00:28:40;22.80;84.70
4578;DHT22;2301;47.354;8.528;2023-07-13T00:31:08;22.70;85.30
4578;DHT22;2301;47.354;8.528;2023-07-13T00:33:35;22.60;85.70
4578;DHT22;2301;47.354;8.528;2023-07-13T00:36:04;22.50;85.90
4578;DHT22;2301;47.354;8.528;2023-07-13T00:38:31;22.50;86.10
4578;DHT22;2301;47.354;8.528;2023-07-13T00:40:58;22.40;86.60
4578;DHT22;2301;47.354;8.528;2023-07-13T00:43:26;22.30;87.00
4578;DHT22;2301;47.354;8.528;2023-07-13T00:48:57;22.20;87.70
4578;DHT22;2301;47.354;8.528;2023-07-13T00:51:31;22.10;88.00
4578;DHT22;2301;47.354;8.528;2023-07-13T00:54:01;22.10;88.20
4578;DHT22;2301;47.354;8.528;2023-07-13T00:56:30;22.10;88.40
4578;DHT22;2301;47.354;8.528;2023-07-13T00:58:58;22.00;88.70
4578;DHT22;2301;47.354;8.528;2023-07-13T01:01:27;22.00;89.00
4578;DHT22;2301;47.354;8.528;2023-07-13T01:03:54;21.90;89.20
4578;DHT22;2301;47.354;8.528;2023-07-13T01:06:22;21.90;89.70
4578;DHT22;2301;47.354;8.528;2023-07-13T01:08:51;21.90;90.00
4578;DHT22;2301;47.354;8.528;2023-07-13T01:11:21;21.90;90.30
4578;DHT22;2301;47.354;8.528;2023-07-13T01:13:48;21.90;90.40
4578;DHT22;2301;47.354;8.528;2023-07-13T01:16:20;21.80;90.30
4578;DHT22;2301;47.354;8.528;2023-07-13T01:18:48;21.90;90.50
4578;DHT22;2301;47.354;8.528;2023-07-13T01:21:17;21.80;90.50
4578;DHT22;2301;47.354;8.528;2023-07-13T01:23:44;21.90;90.60
4578;DHT22;2301;47.354;8.528;2023-07-13T01:26:11;21.80;90.70
4578;DHT22;2301;47.354;8.528;2023-07-13T01:28:38;21.80;90.80
4578;DHT22;2301;47.354;8.528;2023-07-13T01:31:05;21.70;90.70
4578;DHT22;2301;47.354;8.528;2023-07-13T01:33:33;21.70;91.10
4578;DHT22;2301;47.354;8.528;2023-07-13T01:36:01;21.70;90.90
4578;DHT22;2301;47.354;8.528;2023-07-13T01:38:29;21.60;90.90
4578;DHT22;2301;47.354;8.528;2023-07-13T01:40:56;21.60;90.90
4578;DHT22;2301;47.354;8.528;2023-07-13T01:43:23;21.70;91.00
4578;DHT22;2301;47.354;8.528;2023-07-13T01:45:50;21.70;91.00
4578;DHT22;2301;47.354;8.528;2023-07-13T01:48:17;21.70;91.00
4578;DHT22;2301;47.354;8.528;2023-07-13T01:50:44;21.70;91.00
4578;DHT22;2301;47.354;8.528;2023-07-13T01:53:11;21.70;91.00
4578;DHT22;2301;47.354;8.528;2023-07-13T01:55:41;21.70;91.40
4578;DHT22;2301;47.354;8.528;2023-07-13T01:58:08;22.00;92.20
4578;DHT22;2301;47.354;8.528;2023-07-13T02:00:35;22.20;91.80
4578;DHT22;2301;47.354;8.528;2023-07-13T02:03:02;22.50;91.40
4578;DHT22;2301;47.354;8.528;2023-07-13T02:05:29;22.70;90.90
4578;DHT22;2301;47.354;8.528;2023-07-13T02:07:55;22.90;90.60
4578;DHT22;2301;47.354;8.528;2023-07-13T02:10:23;23.00;90.30
4578;DHT22;2301;47.354;8.528;2023-07-13T02:12:51;23.20;90.00
4578;DHT22;2301;47.354;8.528;2023-07-13T02:15:18;23.30;89.40
4578;DHT22;2301;47.354;8.528;2023-07-13T02:17:45;23.40;89.00
4578;DHT22;2301;47.354;8.528;2023-07-13T02:20:12;23.40;88.30
4578;DHT22;2301;47.354;8.528;2023-07-13T02:22:38;23.50;88.10
4578;DHT22;2301;47.354;8.528;2023-07-13T02:25:06;23.60;87.90
4578;DHT22;2301;47.354;8.528;2023-07-13T02:27:33;23.60;87.40
4578;DHT22;2301;47.354;8.528;2023-07-13T02:30:01;23.60;87.30
4578;DHT22;2301;47.354;8.528;2023-07-13T02:32:28;23.70;87.10
4578;DHT22;2301;47.354;8.528;2023-07-13T02:34:55;23.70;86.80
4578;DHT22;2301;47.354;8.528;2023-07-13T02:37:22;23.70;86.40
4578;DHT22;2301;47.354;8.528;2023-07-13T02:39:49;23.70;86.30
4578;DHT22;2301;47.354;8.528;2023-07-13T02:42:16;23.80;86.30
4578;DHT22;2301;47.354;8.528;2023-07-13T02:44:42;23.80;86.10
4578;DHT22;2301;47.354;8.528;2023-07-13T02:47:11;23.80;85.90
4578;DHT22;2301;47.354;8.528;2023-07-13T02:49:38;23.80;85.70
4578;DHT22;2301;47.354;8.528;2023-07-13T02:52:06;23.90;85.60
4578;DHT22;2301;47.354;8.528;2023-07-13T02:54:32;23.90;85.50
4578;DHT22;2301;47.354;8.528;2023-07-13T02:56:59;23.90;85.20
4578;DHT22;2301;47.354;8.528;2023-07-13T02:59:27;23.90;84.60
4578;DHT22;2301;47.354;8.528;2023-07-13T03:01:54;23.70;83.50
4578;DHT22;2301;47.354;8.528;2023-07-13T03:04:22;23.40;84.10
4578;DHT22;2301;47.354;8.528;2023-07-13T03:06:50;23.10;84.60
4578;DHT22;2301;47.354;8.528;2023-07-13T03:09:17;22.90;85.60
4578;DHT22;2301;47.354;8.528;2023-07-13T03:11:44;22.70;86.40
4578;DHT22;2301;47.354;8.528;2023-07-13T03:14:11;22.50;87.10
4578;DHT22;2301;47.354;8.528;2023-07-13T03:16:38;22.40;88.10
4578;DHT22;2301;47.354;8.528;2023-07-13T03:19:06;22.30;88.60
4578;DHT22;2301;47.354;8.528;2023-07-13T03:21:34;22.10;89.00
4578;DHT22;2301;47.354;8.528;2023-07-13T03:24:01;22.00;89.50
4578;DHT22;2301;47.354;8.528;2023-07-13T03:26:28;21.90;89.80
4578;DHT22;2301;47.354;8.528;2023-07-13T03:28:55;21.80;90.10
4578;DHT22;2301;47.354;8.528;2023-07-13T03:31:28;21.70;90.20
4578;DHT22;2301;47.354;8.528;2023-07-13T03:33:56;21.70;90.30
4578;DHT22;2301;47.354;8.528;2023-07-13T03:36:25;21.60;90.60
4578;DHT22;2301;47.354;8.528;2023-07-13T03:38:56;21.50;90.80
4578;DHT22;2301;47.354;8.528;2023-07-13T03:41:24;21.60;90.80
4578;DHT22;2301;47.354;8.528;2023-07-13T03:43:51;21.50;91.00
4578;DHT22;2301;47.354;8.528;2023-07-13T03:46:19;21.40;91.30
4578;DHT22;2301;47.354;8.528;2023-07-13T03:48:47;21.40;91.60
4578;DHT22;2301;47.354;8.528;2023-07-13T03:51:16;21.40;91.60
4578;DHT22;2301;47.354;8.528;2023-07-13T03:53:44;21.40;91.70
4578;DHT22;2301;47.354;8.528;2023-07-13T03:56:14;21.30;91.70
4578;DHT22;2301;47.354;8.528;2023-07-13T03:58:43;21.30;91.90
4578;DHT22;2301;47.354;8.528;2023-07-13T04:01:11;21.20;92.00
4578;DHT22;2301;47.354;8.528;2023-07-13T04:03:38;21.20;92.50
4578;DHT22;2301;47.354;8.528;2023-07-13T04:06:08;21.20;92.20
4578;DHT22;2301;47.354;8.528;2023-07-13T04:08:41;21.20;92.30
4578;DHT22;2301;47.354;8.528;2023-07-13T04:11:08;21.20;92.50
4578;DHT22;2301;47.354;8.528;2023-07-13T04:13:36;21.20;92.50
4578;DHT22;2301;47.354;8.528;2023-07-13T04:16:04;21.20;92.60
4578;DHT22;2301;47.354;8.528;2023-07-13T04:18:31;21.20;92.70
4578;DHT22;2301;47.354;8.528;2023-07-13T04:20:58;21.20;92.60
4578;DHT22;2301;47.354;8.528;2023-07-13T04:23:25;21.10;92.30
4578;DHT22;2301;47.354;8.528;2023-07-13T04:25:54;21.10;92.20
4578;DHT22;2301;47.354;8.528;2023-07-13T04:28:22;21.10;92.30
4578;DHT22;2301;47.354;8.528;2023-07-13T04:30:51;21.10;92.40
4578;DHT22;2301;47.354;8.528;2023-07-13T04:33:18;21.10;92.40
4578;DHT22;2301;47.354;8.528;2023-07-13T04:35:48;21.10;92.30
4578;DHT22;2301;47.354;8.528;2023-07-13T04:38:15;21.10;92.30
4578;DHT22;2301;47.354;8.528;2023-07-13T04:40:42;21.10;92.20
4578;DHT22;2301;47.354;8.528;2023-07-13T04:43:11;21.10;92.20
4578;DHT22;2301;47.354;8.528;2023-07-13T04:45:38;21.10;92.50
4578;DHT22;2301;47.354;8.528;2023-07-13T04:48:06;21.00;92.60
4578;DHT22;2301;47.354;8.528;2023-07-13T04:50:36;21.10;92.50
4578;DHT22;2301;47.354;8.528;2023-07-13T04:53:03;21.10;92.60
4578;DHT22;2301;47.354;8.528;2023-07-13T04:55:31;21.10;92.60
4578;DHT22;2301;47.354;8.528;2023-07-13T04:57:58;21.00;92.50
4578;DHT22;2301;47.354;8.528;2023-07-13T05:00:25;21.00;92.50
4578;DHT22;2301;47.354;8.528;2023-07-13T05:02:54;21.00;92.50
4578;DHT22;2301;47.354;8.528;2023-07-13T05:05:22;21.00;92.70
4578;DHT22;2301;47.354;8.528;2023-07-13T05:07:50;21.10;92.90
4578;DHT22;2301;47.354;8.528;2023-07-13T05:10:17;21.10;93.10
4578;DHT22;2301;47.354;8.528;2023-07-13T05:12:44;21.00;93.10
4578;DHT22;2301;47.354;8.528;2023-07-13T05:15:11;21.10;93.00
4578;DHT22;2301;47.354;8.528;2023-07-13T05:17:38;21.00;92.80
4578;DHT22;2301;47.354;8.528;2023-07-13T05:20:06;21.00;92.70
4578;DHT22;2301;47.354;8.528;2023-07-13T05:22:35;20.90;92.70
4578;DHT22;2301;47.354;8.528;2023-07-13T05:25:04;20.90;93.10
4578;DHT22;2301;47.354;8.528;2023-07-13T05:27:31;20.90;92.90
4578;DHT22;2301;47.354;8.528;2023-07-13T05:29:58;20.90;93.10
4578;DHT22;2301;47.354;8.528;2023-07-13T05:32:25;20.90;93.10
4578;DHT22;2301;47.354;8.528;2023-07-13T05:34:52;20.90;93.10
4578;DHT22;2301;47.354;8.528;2023-07-13T05:37:19;20.90;93.10
4578;DHT22;2301;47.354;8.528;2023-07-13T05:39:48;21.00;93.20
4578;DHT22;2301;47.354;8.528;2023-07-13T05:42:15;21.00;93.30
4578;DHT22;2301;47.354;8.528;2023-07-13T05:44:42;20.90;93.20
4578;DHT22;2301;47.354;8.528;2023-07-13T05:47:09;20.90;93.20
4578;DHT22;2301;47.354;8.528;2023-07-13T05:49:36;20.90;93.20
4578;DHT22;2301;47.354;8.528;2023-07-13T05:52:04;20.90;93.20
4578;DHT22;2301;47.354;8.528;2023-07-13T05:54:31;20.90;93.30
4578;DHT22;2301;47.354;8.528;2023-07-13T05:56:59;20.90;93.30
4578;DHT22;2301;47.354;8.528;2023-07-13T05:59:26;20.90;93.10
4578;DHT22;2301;47.354;8.528;2023-07-13T06:01:53;20.90;93.00
4578;DHT22;2301;47.354;8.528;2023-07-13T06:04:20;20.90;92.90
4578;DHT22;2301;47.354;8.528;2023-07-13T06:06:47;20.90;92.90
4578;DHT22;2301;47.354;8.528;2023-07-13T06:09:15;20.90;92.90
4578;DHT22;2301;47.354;8.528;2023-07-13T06:11:42;20.90;93.00
4578;DHT22;2301;47.354;8.528;2023-07-13T06:14:10;20.90;93.30
4578;DHT22;2301;47.354;8.528;2023-07-13T06:16:37;20.80;93.10
4578;DHT22;2301;47.354;8.528;2023-07-13T06:19:04;20.90;93.30
4578;DHT22;2301;47.354;8.528;2023-07-13T06:21:31;20.80;93.30
4578;DHT22;2301;47.354;8.528;2023-07-13T06:23:58;20.80;93.10
4578;DHT22;2301;47.354;8.528;2023-07-13T06:26:25;20.80;93.00
4578;DHT22;2301;47.354;8.528;2023-07-13T06:28:53;20.80;92.90
4578;DHT22;2301;47.354;8.528;2023-07-13T06:31:21;20.70;92.70
4578;DHT22;2301;47.354;8.528;2023-07-13T06:33:48;20.70;92.70
4578;DHT22;2301;47.354;8.528;2023-07-13T06:36:15;20.70;92.50
4578;DHT22;2301;47.354;8.528;2023-07-13T06:38:42;20.70;92.40
4578;DHT22;2301;47.354;8.528;2023-07-13T06:41:12;20.70;92.60
4578;DHT22;2301;47.354;8.528;2023-07-13T06:43:39;20.70;92.50
4578;DHT22;2301;47.354;8.528;2023-07-13T06:46:06;20.70;92.40
4578;DHT22;2301;47.354;8.528;2023-07-13T06:48:34;20.70;92.30
4578;DHT22;2301;47.354;8.528;2023-07-13T06:51:02;20.60;91.50
4578;DHT22;2301;47.354;8.528;2023-07-13T06:53:29;20.70;92.50
4578;DHT22;2301;47.354;8.528;2023-07-13T06:55:56;20.90;92.10
4578;DHT22;2301;47.354;8.528;2023-07-13T06:58:23;20.90;91.30
4578;DHT22;2301;47.354;8.528;2023-07-13T07:00:51;20.90;91.00
4578;DHT22;2301;47.354;8.528;2023-07-13T07:03:19;20.90;90.90
4578;DHT22;2301;47.354;8.528;2023-07-13T07:05:47;20.80;91.00
4578;DHT22;2301;47.354;8.528;2023-07-13T07:08:14;20.70;91.20
4578;DHT22;2301;47.354;8.528;2023-07-13T07:10:42;20.70;91.00
4578;DHT22;2301;47.354;8.528;2023-07-13T07:13:09;20.70;90.70
4578;DHT22;2301;47.354;8.528;2023-07-13T07:15:36;20.70;90.80
4578;DHT22;2301;47.354;8.528;2023-07-13T07:18:03;20.60;91.20
4578;DHT22;2301;47.354;8.528;2023-07-13T07:20:30;20.60;91.70
4578;DHT22;2301;47.354;8.528;2023-07-13T07:22:59;20.60;91.80
4578;DHT22;2301;47.354;8.528;2023-07-13T07:25:26;20.80;92.30
4578;DHT22;2301;47.354;8.528;2023-07-13T07:27:57;20.80;91.90
4578;DHT22;2301;47.354;8.528;2023-07-13T07:30:24;20.80;91.80
4578;DHT22;2301;47.354;8.528;2023-07-13T07:32:51;20.80;92.20
4578;DHT22;2301;47.354;8.528;2023-07-13T07:35:18;20.90;92.70
4578;DHT22;2301;47.354;8.528;2023-07-13T07:37:45;20.80;92.30
4578;DHT22;2301;47.354;8.528;2023-07-13T07:40:13;20.80;92.30
4578;DHT22;2301;47.354;8.528;2023-07-13T07:42:40;20.80;92.40
4578;DHT22;2301;47.354;8.528;2023-07-13T07:45:07;20.90;92.70
4578;DHT22;2301;47.354;8.528;2023-07-13T07:47:36;20.90;92.80
4578;DHT22;2301;47.354;8.528;2023-07-13T07:50:04;20.90;92.60
4578;DHT22;2301;47.354;8.528;2023-07-13T07:52:31;20.90;92.50
4578;DHT22;2301;47.354;8.528;2023-07-13T07:54:58;20.90;92.20
4578;DHT22;2301;47.354;8.528;2023-07-13T07:57:26;21.00;92.20
4578;DHT22;2301;47.354;8.528;2023-07-13T07:59:53;21.00;92.00
4578;DHT22;2301;47.354;8.528;2023-07-13T08:02:20;21.10;92.00
4578;DHT22;2301;47.354;8.528;2023-07-13T08:04:47;21.20;91.90
4578;DHT22;2301;47.354;8.528;2023-07-13T08:07:14;21.30;91.70
4578;DHT22;2301;47.354;8.528;2023-07-13T08:09:41;21.40;91.80
4578;DHT22;2301;47.354;8.528;2023-07-13T08:12:08;21.50;92.00
4578;DHT22;2301;47.354;8.528;2023-07-13T08:14:36;21.60;92.20
4578;DHT22;2301;47.354;8.528;2023-07-13T08:17:04;21.80;92.50
4578;DHT22;2301;47.354;8.528;2023-07-13T08:19:31;22.00;92.40
4578;DHT22;2301;47.354;8.528;2023-07-13T08:21:58;22.10;92.00
4578;DHT22;2301;47.354;8.528;2023-07-13T08:24:25;22.20;91.40
4578;DHT22;2301;47.354;8.528;2023-07-13T08:26:51;22.30;90.60
4578;DHT22;2301;47.354;8.528;2023-07-13T08:29:18;22.40;90.10
4578;DHT22;2301;47.354;8.528;2023-07-13T08:31:47;22.40;88.40
4578;DHT22;2301;47.354;8.528;2023-07-13T08:34:14;22.50;88.00
4578;DHT22;2301;47.354;8.528;2023-07-13T08:36:41;22.50;86.20
4578;DHT22;2301;47.354;8.528;2023-07-13T08:39:08;22.50;85.80
4578;DHT22;2301;47.354;8.528;2023-07-13T08:41:35;22.60;84.10
4578;DHT22;2301;47.354;8.528;2023-07-13T08:44:05;22.70;85.00
4578;DHT22;2301;47.354;8.528;2023-07-13T08:46:37;22.80;86.00
4578;DHT22;2301;47.354;8.528;2023-07-13T08:49:21;23.00;87.70
4578;DHT22;2301;47.354;8.528;2023-07-13T08:51:52;23.20;87.60
4578;DHT22;2301;47.354;8.528;2023-07-13T08:54:27;23.30;85.40
4578;DHT22;2301;47.354;8.528;2023-07-13T08:56:56;23.50;84.10
4578;DHT22;2301;47.354;8.528;2023-07-13T08:59:26;23.70;84.30
4578;DHT22;2301;47.354;8.528;2023-07-13T09:02:05;23.90;83.40
4578;DHT22;2301;47.354;8.528;2023-07-13T09:04:37;23.90;80.10
4578;DHT22;2301;47.354;8.528;2023-07-13T09:07:16;24.00;82.50
4578;DHT22;2301;47.354;8.528;2023-07-13T09:09:55;24.30;83.60
4578;DHT22;2301;47.354;8.528;2023-07-13T09:12:35;24.30;82.00
4578;DHT22;2301;47.354;8.528;2023-07-13T09:15:21;24.30;81.40
4578;DHT22;2301;47.354;8.528;2023-07-13T09:17:50;24.20;79.30
4578;DHT22;2301;47.354;8.528;2023-07-13T09:20:23;24.10;80.40
4578;DHT22;2301;47.354;8.528;2023-07-13T09:22:52;24.00;79.20
4578;DHT22;2301;47.354;8.528;2023-07-13T09:25:26;23.90;80.40
4578;DHT22;2301;47.354;8.528;2023-07-13T09:27:58;23.90;80.50
4578;DHT22;2301;47.354;8.528;2023-07-13T09:30:33;23.90;79.50
4578;DHT22;2301;47.354;8.528;2023-07-13T09:33:00;23.80;79.60
4578;DHT22;2301;47.354;8.528;2023-07-13T09:35:29;23.90;80.60
4578;DHT22;2301;47.354;8.528;2023-07-13T09:38:04;23.80;81.00
4578;DHT22;2301;47.354;8.528;2023-07-13T09:40:43;23.80;80.30
4578;DHT22;2301;47.354;8.528;2023-07-13T09:43:13;23.80;79.90
4578;DHT22;2301;47.354;8.528;2023-07-13T09:45:46;23.70;80.30
4578;DHT22;2301;47.354;8.528;2023-07-13T09:48:15;23.70;80.60
4578;DHT22;2301;47.354;8.528;2023-07-13T09:50:44;23.70;80.90
4578;DHT22;2301;47.354;8.528;2023-07-13T09:53:13;23.80;81.20
4578;DHT22;2301;47.354;8.528;2023-07-13T09:55:42;23.90;80.70
4578;DHT22;2301;47.354;8.528;2023-07-13T09:58:13;23.90;80.10
4578;DHT22;2301;47.354;8.528;2023-07-13T10:00:41;23.80;79.60
4578;DHT22;2301;47.354;8.528;2023-07-13T10:03:19;23.80;79.40
4578;DHT22;2301;47.354;8.528;2023-07-13T10:05:51;23.70;80.60
4578;DHT22;2301;47.354;8.528;2023-07-13T10:08:21;23.70;81.10
4578;DHT22;2301;47.354;8.528;2023-07-13T10:10:53;23.60;81.10
4578;DHT22;2301;47.354;8.528;2023-07-13T10:13:30;23.60;81.50
4578;DHT22;2301;47.354;8.528;2023-07-13T10:15:59;23.50;80.80
4578;DHT22;2301;47.354;8.528;2023-07-13T10:18:26;23.50;81.30
4578;DHT22;2301;47.354;8.528;2023-07-13T10:21:13;23.50;81.40
4578;DHT22;2301;47.354;8.528;2023-07-13T10:23:42;23.50;81.80
4578;DHT22;2301;47.354;8.528;2023-07-13T10:26:15;23.50;81.90
4578;DHT22;2301;47.354;8.528;2023-07-13T10:28:45;23.60;83.00
4578;DHT22;2301;47.354;8.528;2023-07-13T10:31:15;23.60;82.60
4578;DHT22;2301;47.354;8.528;2023-07-13T10:33:43;23.70;81.50
4578;DHT22;2301;47.354;8.528;2023-07-13T10:36:17;23.80;82.10
4578;DHT22;2301;47.354;8.528;2023-07-13T10:38:50;23.80;82.10
4578;DHT22;2301;47.354;8.528;2023-07-13T10:41:20;23.90;81.50
4578;DHT22;2301;47.354;8.528;2023-07-13T10:43:51;24.10;81.10
4578;DHT22;2301;47.354;8.528;2023-07-13T10:46:22;24.20;80.50
4578;DHT22;2301;47.354;8.528;2023-07-13T10:48:52;24.20;78.90
4578;DHT22;2301;47.354;8.528;2023-07-13T10:51:22;24.30;79.20
4578;DHT22;2301;47.354;8.528;2023-07-13T10:54:11;24.60;78.90
4578;DHT22;2301;47.354;8.528;2023-07-13T10:56:39;24.90;77.70
4578;DHT22;2301;47.354;8.528;2023-07-13T10:59:11;25.00;76.00
4578;DHT22;2301;47.354;8.528;2023-07-13T11:01:49;25.30;76.30
4578;DHT22;2301;47.354;8.528;2023-07-13T11:04:18;25.50;75.30
4578;DHT22;2301;47.354;8.528;2023-07-13T11:06:52;25.60;74.70
4578;DHT22;2301;47.354;8.528;2023-07-13T11:09:32;25.60;73.70
4578;DHT22;2301;47.354;8.528;2023-07-13T11:12:00;25.50;73.40
4578;DHT22;2301;47.354;8.528;2023-07-13T11:14:34;25.50;73.70
4578;DHT22;2301;47.354;8.528;2023-07-13T11:17:32;25.50;76.00
4578;DHT22;2301;47.354;8.528;2023-07-13T11:20:10;25.50;74.80
4578;DHT22;2301;47.354;8.528;2023-07-13T11:22:48;25.60;73.00
4578;DHT22;2301;47.354;8.528;2023-07-13T11:25:27;25.50;71.90
4578;DHT22;2301;47.354;8.528;2023-07-13T11:28:14;25.50;72.00
4578;DHT22;2301;47.354;8.528;2023-07-13T11:30:43;25.40;72.70
4578;DHT22;2301;47.354;8.528;2023-07-13T11:33:16;25.50;73.00
4578;DHT22;2301;47.354;8.528;2023-07-13T11:35:52;25.70;73.30
4578;DHT22;2301;47.354;8.528;2023-07-13T11:38:27;25.90;72.40
4578;DHT22;2301;47.354;8.528;2023-07-13T11:40:55;26.00;72.30
4578;DHT22;2301;47.354;8.528;2023-07-13T11:43:23;26.10;71.60
4578;DHT22;2301;47.354;8.528;2023-07-13T11:45:51;26.20;70.00
4578;DHT22;2301;47.354;8.528;2023-07-13T11:48:19;26.30;70.20
4578;DHT22;2301;47.354;8.528;2023-07-13T11:50:53;26.50;70.80
4578;DHT22;2301;47.354;8.528;2023-07-13T11:53:26;26.60;69.80
4578;DHT22;2301;47.354;8.528;2023-07-13T11:55:53;26.70;68.40
4578;DHT22;2301;47.354;8.528;2023-07-13T11:58:23;26.60;67.70
4578;DHT22;2301;47.354;8.528;2023-07-13T12:00:51;26.50;67.90
4578;DHT22;2301;47.354;8.528;2023-07-13T12:03:22;26.50;68.40
4578;DHT22;2301;47.354;8.528;2023-07-13T12:05:57;26.40;67.80
4578;DHT22;2301;47.354;8.528;2023-07-13T12:08:27;26.40;67.70
4578;DHT22;2301;47.354;8.528;2023-07-13T12:11:05;26.30;66.90
4578;DHT22;2301;47.354;8.528;2023-07-13T12:13:37;26.20;68.60
4578;DHT22;2301;47.354;8.528;2023-07-13T12:16:16;26.10;67.50
4578;DHT22;2301;47.354;8.528;2023-07-13T12:18:44;26.20;68.50
4578;DHT22;2301;47.354;8.528;2023-07-13T12:21:17;26.30;68.40
4578;DHT22;2301;47.354;8.528;2023-07-13T12:23:48;26.50;68.40
4578;DHT22;2301;47.354;8.528;2023-07-13T12:26:17;26.60;67.20
4578;DHT22;2301;47.354;8.528;2023-07-13T12:28:46;26.70;66.30
4578;DHT22;2301;47.354;8.528;2023-07-13T12:31:26;26.90;67.20
4578;DHT22;2301;47.354;8.528;2023-07-13T12:33:58;27.00;65.40
4578;DHT22;2301;47.354;8.528;2023-07-13T12:36:25;27.00;65.10
4578;DHT22;2301;47.354;8.528;2023-07-13T12:38:54;27.10;64.80
4578;DHT22;2301;47.354;8.528;2023-07-13T12:41:21;27.30;64.60
4578;DHT22;2301;47.354;8.528;2023-07-13T12:43:48;27.30;63.70
4578;DHT22;2301;47.354;8.528;2023-07-13T12:46:18;27.30;62.50
4578;DHT22;2301;47.354;8.528;2023-07-13T12:48:49;27.30;61.00
4578;DHT22;2301;47.354;8.528;2023-07-13T12:51:21;27.20;60.20
4578;DHT22;2301;47.354;8.528;2023-07-13T12:53:50;27.20;61.20
4578;DHT22;2301;47.354;8.528;2023-07-13T12:56:23;27.30;61.60
4578;DHT22;2301;47.354;8.528;2023-07-13T12:58:56;27.30;61.60
4578;DHT22;2301;47.354;8.528;2023-07-13T13:01:27;27.20;62.40
4578;DHT22;2301;47.354;8.528;2023-07-13T13:03:54;27.20;63.50
4578;DHT22;2301;47.354;8.528;2023-07-13T13:06:24;27.20;64.00
4578;DHT22;2301;47.354;8.528;2023-07-13T13:08:53;27.20;63.90
4578;DHT22;2301;47.354;8.528;2023-07-13T13:11:23;27.10;60.90
4578;DHT22;2301;47.354;8.528;2023-07-13T13:13:52;27.00;59.00
4578;DHT22;2301;47.354;8.528;2023-07-13T13:16:21;27.00;59.80
4578;DHT22;2301;47.354;8.528;2023-07-13T13:18:49;26.90;59.40
4578;DHT22;2301;47.354;8.528;2023-07-13T13:21:16;26.70;60.10
4578;DHT22;2301;47.354;8.528;2023-07-13T13:23:44;26.60;61.10
4578;DHT22;2301;47.354;8.528;2023-07-13T13:26:12;26.50;63.10
4578;DHT22;2301;47.354;8.528;2023-07-13T13:28:42;26.50;65.50
4578;DHT22;2301;47.354;8.528;2023-07-13T13:31:11;26.30;69.20
4578;DHT22;2301;47.354;8.528;2023-07-13T13:33:39;26.30;70.80
4578;DHT22;2301;47.354;8.528;2023-07-13T13:36:14;26.20;69.40
4578;DHT22;2301;47.354;8.528;2023-07-13T13:38:43;26.20;68.30
4578;DHT22;2301;47.354;8.528;2023-07-13T13:41:11;26.10;67.60
4578;DHT22;2301;47.354;8.528;2023-07-13T13:43:39;26.10;68.70
4578;DHT22;2301;47.354;8.528;2023-07-13T13:46:13;26.00;70.80
4578;DHT22;2301;47.354;8.528;2023-07-13T13:48:41;26.00;70.50
4578;DHT22;2301;47.354;8.528;2023-07-13T13:51:14;26.00;69.50
4578;DHT22;2301;47.354;8.528;2023-07-13T13:53:41;26.10;68.70
4578;DHT22;2301;47.354;8.528;2023-07-13T13:56:08;26.20;66.70
4578;DHT22;2301;47.354;8.528;2023-07-13T13:58:35;26.30;65.80
4578;DHT22;2301;47.354;8.528;2023-07-13T14:01:02;26.40;66.10
4578;DHT22;2301;47.354;8.528;2023-07-13T14:03:33;26.50;66.00
4578;DHT22;2301;47.354;8.528;2023-07-13T14:06:00;26.50;64.30
4578;DHT22;2301;47.354;8.528;2023-07-13T14:08:27;26.40;63.50
4578;DHT22;2301;47.354;8.528;2023-07-13T14:10:56;26.40;63.50
4578;DHT22;2301;47.354;8.528;2023-07-13T14:13:30;26.40;63.80
4578;DHT22;2301;47.354;8.528;2023-07-13T14:15:59;26.40;62.10
4578;DHT22;2301;47.354;8.528;2023-07-13T14:18:26;26.40;63.10
4578;DHT22;2301;47.354;8.528;2023-07-13T14:20:55;26.30;64.40
4578;DHT22;2301;47.354;8.528;2023-07-13T14:23:22;26.30;65.70
4578;DHT22;2301;47.354;8.528;2023-07-13T14:25:48;26.20;67.50
4578;DHT22;2301;47.354;8.528;2023-07-13T14:28:21;26.20;67.30
4578;DHT22;2301;47.354;8.528;2023-07-13T14:30:49;26.10;66.80
4578;DHT22;2301;47.354;8.528;2023-07-13T14:33:16;26.10;66.40
4578;DHT22;2301;47.354;8.528;2023-07-13T14:35:43;26.00;65.40
4578;DHT22;2301;47.354;8.528;2023-07-13T14:38:15;26.00;64.90
4578;DHT22;2301;47.354;8.528;2023-07-13T14:40:43;25.90;65.80
4578;DHT22;2301;47.354;8.528;2023-07-13T14:43:11;25.80;65.30
4578;DHT22;2301;47.354;8.528;2023-07-13T14:45:45;25.80;64.50
4578;DHT22;2301;47.354;8.528;2023-07-13T14:48:17;25.70;63.80
4578;DHT22;2301;47.354;8.528;2023-07-13T14:50:45;25.70;63.40
4578;DHT22;2301;47.354;8.528;2023-07-13T14:53:14;25.60;63.10
4578;DHT22;2301;47.354;8.528;2023-07-13T14:55:41;25.60;62.70
4578;DHT22;2301;47.354;8.528;2023-07-13T14:58:09;25.60;62.10
4578;DHT22;2301;47.354;8.528;2023-07-13T15:00:36;25.60;61.50
4578;DHT22;2301;47.354;8.528;2023-07-13T15:03:04;25.60;61.70
4578;DHT22;2301;47.354;8.528;2023-07-13T15:05:32;25.60;62.70
4578;DHT22;2301;47.354;8.528;2023-07-13T15:08:01;25.70;63.10
4578;DHT22;2301;47.354;8.528;2023-07-13T15:10:32;25.80;63.00
4578;DHT22;2301;47.354;8.528;2023-07-13T15:13:01;25.90;61.90
4578;DHT22;2301;47.354;8.528;2023-07-13T15:15:40;26.00;61.20
4578;DHT22;2301;47.354;8.528;2023-07-13T15:18:09;26.10;60.30
4578;DHT22;2301;47.354;8.528;2023-07-13T15:20:38;26.10;58.90
4578;DHT22;2301;47.354;8.528;2023-07-13T15:23:05;26.00;58.70
4578;DHT22;2301;47.354;8.528;2023-07-13T15:25:34;26.00;57.00
4578;DHT22;2301;47.354;8.528;2023-07-13T15:28:01;26.00;56.30
4578;DHT22;2301;47.354;8.528;2023-07-13T15:30:31;26.00;56.30
4578;DHT22;2301;47.354;8.528;2023-07-13T15:33:09;26.00;55.90
4578;DHT22;2301;47.354;8.528;2023-07-13T15:35:37;26.00;55.80
4578;DHT22;2301;47.354;8.528;2023-07-13T15:38:12;26.10;55.70
4578;DHT22;2301;47.354;8.528;2023-07-13T15:40:41;26.20;55.50
4578;DHT22;2301;47.354;8.528;2023-07-13T15:43:11;26.20;55.30
4578;DHT22;2301;47.354;8.528;2023-07-13T15:45:38;26.20;54.10
4578;DHT22;2301;47.354;8.528;2023-07-13T15:48:12;26.30;54.40
4578;DHT22;2301;47.354;8.528;2023-07-13T15:50:43;26.40;54.40
4578;DHT22;2301;47.354;8.528;2023-07-13T15:53:10;26.40;54.40
4578;DHT22;2301;47.354;8.528;2023-07-13T15:55:38;26.40;54.30
4578;DHT22;2301;47.354;8.528;2023-07-13T15:58:10;26.40;53.10
4578;DHT22;2301;47.354;8.528;2023-07-13T16:00:38;26.50;53.90
4578;DHT22;2301;47.354;8.528;2023-07-13T16:03:05;26.50;53.80
4578;DHT22;2301;47.354;8.528;2023-07-13T16:05:33;26.50;53.60
4578;DHT22;2301;47.354;8.528;2023-07-13T16:08:01;26.50;52.30
4578;DHT22;2301;47.354;8.528;2023-07-13T16:10:32;26.50;52.00
4578;DHT22;2301;47.354;8.528;2023-07-13T16:12:59;26.40;51.60
4578;DHT22;2301;47.354;8.528;2023-07-13T16:15:31;26.40;51.00
4578;DHT22;2301;47.354;8.528;2023-07-13T16:18:00;26.40;50.80